sensor_id;sensor_type;location;lat;lon;timestamp;P1;durP1;ratioP1;P2;durP2;ratioP2
17524;SDS011;40431;52.198;9.902;2023-06-22T00:00:33;8.43;;;7.87;;
17524;SDS011;40431;52.198;9.902;2023-06-22T00:02:59;9.37;;;8.60;;
17524;SDS011;40431;52.198;9.902;2023-06-22T00:05:25;8.50;;;7.90;;
17524;SDS011;40431;52.198;9.902;2023-06-22T00:07:52;9.60;;;8.97;;
17524;SDS011;40431;52.198;9.902;2023-06-22T00:10:20;8.70;;;8.20;;
17524;SDS011;40431;52.198;9.902;2023-06-22T00:12:46;9.30;;;8.60;;
17524;SDS011;40431;52.198;9.902;2023-06-22T00:15:12;8.70;;;8.13;;
17524;SDS011;40431;52.198;9.902;2023-06-22T00:17:39;8.73;;;8.13;;
17524;SDS011;40431;52.198;9.902;2023-06-22T00:20:05;9.33;;;8.63;;
17524;SDS011;40431;52.198;9.902;2023-06-22T00:22:35;9.00;;;8.30;;
17524;SDS011;40431;52.198;9.902;2023-06-22T00:25:04;8.93;;;8.33;;
17524;SDS011;40431;52.198;9.902;2023-06-22T00:27:33;8.97;;;8.37;;
17524;SDS011;40431;52.198;9.902;2023-06-22T00:29:59;8.50;;;8.00;;
17524;SDS011;40431;52.198;9.902;2023-06-22T00:32:25;8.70;;;8.00;;
17524;SDS011;40431;52.198;9.902;2023-06-22T00:34:52;8.37;;;7.80;;
17524;SDS011;40431;52.198;9.902;2023-06-22T00:37:18;7.90;;;7.33;;
17524;SDS011;40431;52.198;9.902;2023-06-22T00:39:47;8.80;;;8.10;;
17524;SDS011;40431;52.198;9.902;2023-06-22T00:42:14;9.40;;;8.60;;
17524;SDS011;40431;52.198;9.902;2023-06-22T00:44:41;9.40;;;8.70;;
17524;SDS011;40431;52.198;9.902;2023-06-22T00:47:08;9.20;;;8.60;;
17524;SDS011;40431;52.198;9.902;2023-06-22T00:49:35;9.67;;;8.93;;
17524;SDS011;40431;52.198;9.902;2023-06-22T00:52:01;10.17;;;9.57;;
17524;SDS011;40431;52.198;9.902;2023-06-22T00:54:28;11.97;;;10.93;;
17524;SDS011;40431;52.198;9.902;2023-06-22T00:56:55;11.07;;;10.17;;
17524;SDS011;40431;52.198;9.902;2023-06-22T00:59:23;11.63;;;10.70;;
17524;SDS011;40431;52.198;9.902;2023-06-22T01:01:52;11.57;;;10.73;;
17524;SDS011;40431;52.198;9.902;2023-06-22T01:04:18;11.63;;;10.83;;
17524;SDS011;40431;52.198;9.902;2023-06-22T01:06:45;12.13;;;11.03;;
17524;SDS011;40431;52.198;9.902;2023-06-22T01:09:21;10.50;;;9.73;;
17524;SDS011;40431;52.198;9.902;2023-06-22T01:11:54;10.47;;;9.57;;
17524;SDS011;40431;52.198;9.902;2023-06-22T01:14:28;12.87;;;10.33;;
17524;SDS011;40431;52.198;9.902;2023-06-22T01:17:04;10.67;;;9.97;;
17524;SDS011;40431;52.198;9.902;2023-06-22T01:19:35;10.23;;;9.43;;
17524;SDS011;40431;52.198;9.902;2023-06-22T01:22:06;10.20;;;9.43;;
17524;SDS011;40431;52.198;9.902;2023-06-22T01:24:41;10.13;;;9.43;;
17524;SDS011;40431;52.198;9.902;2023-06-22T01:27:19;10.60;;;9.80;;
17524;SDS011;40431;52.198;9.902;2023-06-22T01:30:01;11.03;;;10.07;;
17524;SDS011;40431;52.198;9.902;2023-06-22T01:32:30;11.93;;;11.03;;
17524;SDS011;40431;52.198;9.902;2023-06-22T01:34:58;11.47;;;10.43;;
17524;SDS011;40431;52.198;9.902;2023-06-22T01:37:27;11.73;;;10.77;;
17524;SDS011;40431;52.198;9.902;2023-06-22T01:39:55;10.30;;;9.60;;
17524;SDS011;40431;52.198;9.902;2023-06-22T01:42:22;11.53;;;10.60;;
17524;SDS011;40431;52.198;9.902;2023-06-22T01:44:50;11.53;;;10.63;;
17524;SDS011;40431;52.198;9.902;2023-06-22T01:47:19;12.13;;;10.97;;
17524;SDS011;40431;52.198;9.902;2023-06-22T01:49:46;12.53;;;11.63;;
17524;SDS011;40431;52.198;9.902;2023-06-22T01:52:13;10.40;;;9.63;;
17524;SDS011;40431;52.198;9.902;2023-06-22T01:54:40;10.00;;;9.40;;
17524;SDS011;40431;52.198;9.902;2023-06-22T01:57:06;10.97;;;10.20;;
17524;SDS011;40431;52.198;9.902;2023-06-22T01:59:34;10.70;;;9.97;;
17524;SDS011;40431;52.198;9.902;2023-06-22T02:02:06;10.50;;;9.70;;
17524;SDS011;40431;52.198;9.902;2023-06-22T02:04:37;10.73;;;9.80;;
17524;SDS011;40431;52.198;9.902;2023-06-22T02:07:10;10.77;;;9.87;;
17524;SDS011;40431;52.198;9.902;2023-06-22T02:09:40;11.50;;;10.07;;
17524;SDS011;40431;52.198;9.902;2023-06-22T02:12:10;10.77;;;10.07;;
17524;SDS011;40431;52.198;9.902;2023-06-22T02:14:38;10.97;;;10.17;;
17524;SDS011;40431;52.198;9.902;2023-06-22T02:17:08;9.57;;;8.90;;
17524;SDS011;40431;52.198;9.902;2023-06-22T02:19:37;10.17;;;9.53;;
17524;SDS011;40431;52.198;9.902;2023-06-22T02:22:04;10.63;;;9.93;;
17524;SDS011;40431;52.198;9.902;2023-06-22T02:24:30;11.70;;;10.90;;
17524;SDS011;40431;52.198;9.902;2023-06-22T02:26:58;10.93;;;9.83;;
17524;SDS011;40431;52.198;9.902;2023-06-22T02:29:25;11.30;;;10.03;;
17524;SDS011;40431;52.198;9.902;2023-06-22T02:31:51;10.20;;;9.07;;
17524;SDS011;40431;52.198;9.902;2023-06-22T02:34:18;15.83;;;10.27;;
17524;SDS011;40431;52.198;9.902;2023-06-22T02:36:46;10.97;;;9.90;;
17524;SDS011;40431;52.198;9.902;2023-06-22T02:39:16;12.27;;;11.07;;
17524;SDS011;40431;52.198;9.902;2023-06-22T02:41:43;16.37;;;10.93;;
17524;SDS011;40431;52.198;9.902;2023-06-22T02:44:10;11.40;;;10.30;;
17524;SDS011;40431;52.198;9.902;2023-06-22T02:46:36;11.87;;;10.97;;
17524;SDS011;40431;52.198;9.902;2023-06-22T02:49:02;11.57;;;10.47;;
17524;SDS011;40431;52.198;9.902;2023-06-22T02:51:29;12.20;;;11.13;;
17524;SDS011;40431;52.198;9.902;2023-06-22T02:53:58;11.77;;;10.97;;
17524;SDS011;40431;52.198;9.902;2023-06-22T02:56:24;10.63;;;9.90;;
17524;SDS011;40431;52.198;9.902;2023-06-22T02:58:51;14.73;;;11.50;;
17524;SDS011;40431;52.198;9.902;2023-06-22T03:01:17;11.17;;;10.20;;
17524;SDS011;40431;52.198;9.902;2023-06-22T03:03:49;11.33;;;10.43;;
17524;SDS011;40431;52.198;9.902;2023-06-22T03:06:16;10.33;;;9.63;;
17524;SDS011;40431;52.198;9.902;2023-06-22T03:08:47;11.27;;;10.10;;
17524;SDS011;40431;52.198;9.902;2023-06-22T03:11:15;10.33;;;9.53;;
17524;SDS011;40431;52.198;9.902;2023-06-22T03:13:41;11.07;;;9.97;;
17524;SDS011;40431;52.198;9.902;2023-06-22T03:16:08;12.23;;;10.67;;
17524;SDS011;40431;52.198;9.902;2023-06-22T03:18:34;12.00;;;11.00;;
17524;SDS011;40431;52.198;9.902;2023-06-22T03:21:00;17.23;;;10.93;;
17524;SDS011;40431;52.198;9.902;2023-06-22T03:23:27;11.87;;;10.83;;
17524;SDS011;40431;52.198;9.902;2023-06-22T03:25:53;12.93;;;11.67;;
17524;SDS011;40431;52.198;9.902;2023-06-22T03:28:22;12.20;;;11.23;;
17524;SDS011;40431;52.198;9.902;2023-06-22T03:30:48;12.73;;;11.63;;
17524;SDS011;40431;52.198;9.902;2023-06-22T03:33:14;14.23;;;11.93;;
17524;SDS011;40431;52.198;9.902;2023-06-22T03:35:41;13.80;;;12.57;;
17524;SDS011;40431;52.198;9.902;2023-06-22T03:38:07;12.57;;;11.67;;
17524;SDS011;40431;52.198;9.902;2023-06-22T03:40:33;12.47;;;11.23;;
17524;SDS011;40431;52.198;9.902;2023-06-22T03:43:00;12.67;;;11.63;;
17524;SDS011;40431;52.198;9.902;2023-06-22T03:45:28;12.60;;;11.57;;
17524;SDS011;40431;52.198;9.902;2023-06-22T03:47:54;12.77;;;11.57;;
17524;SDS011;40431;52.198;9.902;2023-06-22T03:50:20;11.83;;;10.73;;
17524;SDS011;40431;52.198;9.902;2023-06-22T03:52:47;11.40;;;10.40;;
17524;SDS011;40431;52.198;9.902;2023-06-22T03:55:13;12.13;;;11.03;;
17524;SDS011;40431;52.198;9.902;2023-06-22T03:57:40;12.47;;;11.37;;
17524;SDS011;40431;52.198;9.902;2023-06-22T04:00:06;12.50;;;11.37;;
17524;SDS011;40431;52.198;9.902;2023-06-22T04:02:36;13.33;;;12.13;;
17524;SDS011;40431;52.198;9.902;2023-06-22T04:05:02;12.80;;;11.57;;
17524;SDS011;40431;52.198;9.902;2023-06-22T04:07:29;10.90;;;10.13;;
17524;SDS011;40431;52.198;9.902;2023-06-22T04:09:56;11.60;;;10.70;;
17524;SDS011;40431;52.198;9.902;2023-06-22T04:12:22;12.07;;;10.97;;
17524;SDS011;40431;52.198;9.902;2023-06-22T04:14:48;12.13;;;11.13;;
17524;SDS011;40431;52.198;9.902;2023-06-22T04:17:15;12.47;;;11.47;;
17524;SDS011;40431;52.198;9.902;2023-06-22T04:19:44;12.10;;;11.07;;
17524;SDS011;40431;52.198;9.902;2023-06-22T04:22:10;13.07;;;11.77;;
17524;SDS011;40431;52.198;9.902;2023-06-22T04:24:37;13.27;;;12.37;;
17524;SDS011;40431;52.198;9.902;2023-06-22T04:27:03;13.33;;;12.07;;
17524;SDS011;40431;52.198;9.902;2023-06-22T04:29:30;14.03;;;12.97;;
17524;SDS011;40431;52.198;9.902;2023-06-22T04:31:57;12.87;;;12.00;;
17524;SDS011;40431;52.198;9.902;2023-06-22T04:34:28;14.10;;;12.70;;
17524;SDS011;40431;52.198;9.902;2023-06-22T04:36:56;12.77;;;11.77;;
17524;SDS011;40431;52.198;9.902;2023-06-22T04:39:23;16.63;;;12.93;;
17524;SDS011;40431;52.198;9.902;2023-06-22T04:41:51;15.20;;;13.90;;
17524;SDS011;40431;52.198;9.902;2023-06-22T04:44:18;13.57;;;12.43;;
17524;SDS011;40431;52.198;9.902;2023-06-22T04:46:49;14.17;;;13.17;;
17524;SDS011;40431;52.198;9.902;2023-06-22T04:49:19;14.63;;;13.30;;
17524;SDS011;40431;52.198;9.902;2023-06-22T04:51:46;14.33;;;13.33;;
17524;SDS011;40431;52.198;9.902;2023-06-22T04:54:15;14.80;;;13.70;;
17524;SDS011;40431;52.198;9.902;2023-06-22T04:56:41;15.63;;;14.23;;
17524;SDS011;40431;52.198;9.902;2023-06-22T04:59:07;14.43;;;13.03;;
17524;SDS011;40431;52.198;9.902;2023-06-22T05:01:38;15.80;;;14.40;;
17524;SDS011;40431;52.198;9.902;2023-06-22T05:04:04;16.47;;;15.37;;
17524;SDS011;40431;52.198;9.902;2023-06-22T05:06:31;16.90;;;15.27;;
17524;SDS011;40431;52.198;9.902;2023-06-22T05:08:58;17.23;;;15.70;;
17524;SDS011;40431;52.198;9.902;2023-06-22T05:11:26;16.37;;;15.07;;
17524;SDS011;40431;52.198;9.902;2023-06-22T05:13:52;16.60;;;15.40;;
17524;SDS011;40431;52.198;9.902;2023-06-22T05:16:20;17.03;;;15.80;;
17524;SDS011;40431;52.198;9.902;2023-06-22T05:18:49;17.67;;;16.43;;
17524;SDS011;40431;52.198;9.902;2023-06-22T05:21:21;16.97;;;15.77;;
17524;SDS011;40431;52.198;9.902;2023-06-22T05:23:48;18.20;;;16.67;;
17524;SDS011;40431;52.198;9.902;2023-06-22T05:26:14;20.60;;;16.73;;
17524;SDS011;40431;52.198;9.902;2023-06-22T05:28:42;18.87;;;17.13;;
17524;SDS011;40431;52.198;9.902;2023-06-22T05:31:11;17.77;;;16.10;;
17524;SDS011;40431;52.198;9.902;2023-06-22T05:33:37;17.83;;;16.60;;
17524;SDS011;40431;52.198;9.902;2023-06-22T05:36:03;18.27;;;16.77;;
17524;SDS011;40431;52.198;9.902;2023-06-22T05:38:30;18.17;;;16.87;;
17524;SDS011;40431;52.198;9.902;2023-06-22T05:40:57;17.33;;;15.87;;
17524;SDS011;40431;52.198;9.902;2023-06-22T05:43:23;16.33;;;15.23;;
17524;SDS011;40431;52.198;9.902;2023-06-22T05:45:51;16.93;;;15.67;;
17524;SDS011;40431;52.198;9.902;2023-06-22T05:48:17;18.90;;;17.07;;
17524;SDS011;40431;52.198;9.902;2023-06-22T05:50:43;16.57;;;15.47;;
17524;SDS011;40431;52.198;9.902;2023-06-22T05:53:10;16.33;;;15.13;;
17524;SDS011;40431;52.198;9.902;2023-06-22T05:55:36;17.13;;;15.93;;
17524;SDS011;40431;52.198;9.902;2023-06-22T05:58:02;16.93;;;15.67;;
17524;SDS011;40431;52.198;9.902;2023-06-22T06:00:29;16.00;;;14.80;;
17524;SDS011;40431;52.198;9.902;2023-06-22T06:02:57;16.70;;;15.13;;
17524;SDS011;40431;52.198;9.902;2023-06-22T06:05:28;15.27;;;14.23;;
17524;SDS011;40431;52.198;9.902;2023-06-22T06:07:54;16.13;;;14.83;;
17524;SDS011;40431;52.198;9.902;2023-06-22T06:10:20;16.47;;;15.17;;
17524;SDS011;40431;52.198;9.902;2023-06-22T06:12:47;16.67;;;15.53;;
17524;SDS011;40431;52.198;9.902;2023-06-22T06:15:13;16.00;;;14.87;;
17524;SDS011;40431;52.198;9.902;2023-06-22T06:17:45;16.40;;;15.00;;
17524;SDS011;40431;52.198;9.902;2023-06-22T06:20:13;15.57;;;14.30;;
17524;SDS011;40431;52.198;9.902;2023-06-22T06:22:40;16.17;;;14.97;;
17524;SDS011;40431;52.198;9.902;2023-06-22T06:25:08;17.50;;;15.90;;
17524;SDS011;40431;52.198;9.902;2023-06-22T06:27:34;14.80;;;13.70;;
17524;SDS011;40431;52.198;9.902;2023-06-22T06:30:01;16.67;;;14.90;;
17524;SDS011;40431;52.198;9.902;2023-06-22T06:32:28;16.60;;;14.90;;
17524;SDS011;40431;52.198;9.902;2023-06-22T06:34:54;15.40;;;14.20;;
17524;SDS011;40431;52.198;9.902;2023-06-22T06:37:22;15.27;;;14.07;;
17524;SDS011;40431;52.198;9.902;2023-06-22T06:39:48;15.07;;;13.97;;
17524;SDS011;40431;52.198;9.902;2023-06-22T06:42:16;14.47;;;13.43;;
17524;SDS011;40431;52.198;9.902;2023-06-22T06:44:44;14.70;;;13.50;;
17524;SDS011;40431;52.198;9.902;2023-06-22T06:47:10;15.33;;;14.10;;
17524;SDS011;40431;52.198;9.902;2023-06-22T06:49:37;14.93;;;13.53;;
17524;SDS011;40431;52.198;9.902;2023-06-22T06:52:03;14.27;;;13.17;;
17524;SDS011;40431;52.198;9.902;2023-06-22T06:54:31;14.53;;;13.43;;
17524;SDS011;40431;52.198;9.902;2023-06-22T06:56:58;13.07;;;12.07;;
17524;SDS011;40431;52.198;9.902;2023-06-22T06:59:24;12.23;;;11.33;;
17524;SDS011;40431;52.198;9.902;2023-06-22T07:01:50;13.87;;;12.63;;
17524;SDS011;40431;52.198;9.902;2023-06-22T07:04:17;13.23;;;11.90;;
17524;SDS011;40431;52.198;9.902;2023-06-22T07:06:43;13.87;;;12.80;;
17524;SDS011;40431;52.198;9.902;2023-06-22T07:09:09;12.33;;;11.30;;
17524;SDS011;40431;52.198;9.902;2023-06-22T07:11:37;12.50;;;11.60;;
17524;SDS011;40431;52.198;9.902;2023-06-22T07:14:03;12.23;;;11.23;;
17524;SDS011;40431;52.198;9.902;2023-06-22T07:16:30;12.60;;;11.30;;
17524;SDS011;40431;52.198;9.902;2023-06-22T07:18:56;11.83;;;10.73;;
17524;SDS011;40431;52.198;9.902;2023-06-22T07:21:23;11.77;;;10.77;;
17524;SDS011;40431;52.198;9.902;2023-06-22T07:23:49;10.83;;;10.03;;
17524;SDS011;40431;52.198;9.902;2023-06-22T07:26:15;10.03;;;9.33;;
17524;SDS011;40431;52.198;9.902;2023-06-22T07:28:43;11.10;;;10.13;;
17524;SDS011;40431;52.198;9.902;2023-06-22T07:31:09;9.80;;;9.10;;
17524;SDS011;40431;52.198;9.902;2023-06-22T07:33:36;10.97;;;10.07;;
17524;SDS011;40431;52.198;9.902;2023-06-22T07:36:02;10.17;;;9.33;;
17524;SDS011;40431;52.198;9.902;2023-06-22T07:38:33;10.00;;;9.30;;
17524;SDS011;40431;52.198;9.902;2023-06-22T07:40:59;11.00;;;9.97;;
17524;SDS011;40431;52.198;9.902;2023-06-22T07:43:26;11.07;;;10.27;;
17524;SDS011;40431;52.198;9.902;2023-06-22T07:45:53;11.27;;;10.40;;
17524;SDS011;40431;52.198;9.902;2023-06-22T07:48:20;11.80;;;10.90;;
17524;SDS011;40431;52.198;9.902;2023-06-22T07:50:47;11.27;;;10.30;;
17524;SDS011;40431;52.198;9.902;2023-06-22T07:53:13;10.67;;;9.80;;
17524;SDS011;40431;52.198;9.902;2023-06-22T07:55:40;11.57;;;10.67;;
17524;SDS011;40431;52.198;9.902;2023-06-22T07:58:06;11.53;;;10.57;;
17524;SDS011;40431;52.198;9.902;2023-06-22T08:00:33;11.57;;;10.67;;
17524;SDS011;40431;52.198;9.902;2023-06-22T08:03:01;11.23;;;10.23;;
17524;SDS011;40431;52.198;9.902;2023-06-22T08:05:30;11.77;;;10.87;;
17524;SDS011;40431;52.198;9.902;2023-06-22T08:07:56;11.67;;;10.77;;
17524;SDS011;40431;52.198;9.902;2023-06-22T08:10:23;12.13;;;10.90;;
17524;SDS011;40431;52.198;9.902;2023-06-22T08:12:49;12.03;;;11.13;;
17524;SDS011;40431;52.198;9.902;2023-06-22T08:15:16;11.67;;;10.13;;
17524;SDS011;40431;52.198;9.902;2023-06-22T08:17:43;11.73;;;10.67;;
17524;SDS011;40431;52.198;9.902;2023-06-22T08:20:12;10.40;;;9.43;;
17524;SDS011;40431;52.198;9.902;2023-06-22T08:22:38;11.43;;;10.53;;
17524;SDS011;40431;52.198;9.902;2023-06-22T08:25:05;11.70;;;10.70;;
17524;SDS011;40431;52.198;9.902;2023-06-22T08:27:33;11.70;;;10.70;;
17524;SDS011;40431;52.198;9.902;2023-06-22T08:30:00;15.53;;;11.10;;
17524;SDS011;40431;52.198;9.902;2023-06-22T08:32:27;11.80;;;10.90;;
17524;SDS011;40431;52.198;9.902;2023-06-22T08:34:54;11.57;;;10.67;;
17524;SDS011;40431;52.198;9.902;2023-06-22T08:37:22;12.43;;;11.33;;
17524;SDS011;40431;52.198;9.902;2023-06-22T08:39:55;11.97;;;11.17;;
17524;SDS011;40431;52.198;9.902;2023-06-22T08:42:22;11.40;;;10.50;;
17524;SDS011;40431;52.198;9.902;2023-06-22T08:44:49;10.50;;;9.73;;
17524;SDS011;40431;52.198;9.902;2023-06-22T08:47:15;11.00;;;10.30;;
17524;SDS011;40431;52.198;9.902;2023-06-22T08:49:41;10.57;;;9.57;;
17524;SDS011;40431;52.198;9.902;2023-06-22T08:52:08;11.40;;;10.40;;
17524;SDS011;40431;52.198;9.902;2023-06-22T08:54:36;10.10;;;9.40;;
17524;SDS011;40431;52.198;9.902;2023-06-22T08:57:02;11.13;;;10.37;;
17524;SDS011;40431;52.198;9.902;2023-06-22T08:59:29;10.70;;;9.90;;
17524;SDS011;40431;52.198;9.902;2023-06-22T09:01:55;9.77;;;8.97;;
17524;SDS011;40431;52.198;9.902;2023-06-22T09:04:22;10.27;;;9.57;;
17524;SDS011;40431;52.198;9.902;2023-06-22T09:06:48;10.40;;;9.57;;
17524;SDS011;40431;52.198;9.902;2023-06-22T09:09:17;10.27;;;9.57;;
17524;SDS011;40431;52.198;9.902;2023-06-22T09:11:45;10.73;;;9.83;;
17524;SDS011;40431;52.198;9.902;2023-06-22T09:14:12;11.20;;;10.40;;
17524;SDS011;40431;52.198;9.902;2023-06-22T09:16:38;10.90;;;9.93;;
17524;SDS011;40431;52.198;9.902;2023-06-22T09:19:05;11.70;;;9.60;;
17524;SDS011;40431;52.198;9.902;2023-06-22T09:21:31;11.23;;;10.53;;
17524;SDS011;40431;52.198;9.902;2023-06-22T09:23:57;11.97;;;11.00;;
17524;SDS011;40431;52.198;9.902;2023-06-22T09:26:24;11.77;;;10.77;;
17524;SDS011;40431;52.198;9.902;2023-06-22T09:28:52;10.97;;;10.07;;
17524;SDS011;40431;52.198;9.902;2023-06-22T09:31:18;12.93;;;11.93;;
17524;SDS011;40431;52.198;9.902;2023-06-22T09:33:50;12.60;;;11.40;;
17524;SDS011;40431;52.198;9.902;2023-06-22T09:36:16;14.30;;;13.03;;
17524;SDS011;40431;52.198;9.902;2023-06-22T09:38:43;12.73;;;11.83;;
17524;SDS011;40431;52.198;9.902;2023-06-22T09:41:09;13.57;;;12.07;;
17524;SDS011;40431;52.198;9.902;2023-06-22T09:43:35;12.43;;;11.33;;
17524;SDS011;40431;52.198;9.902;2023-06-22T09:46:03;13.40;;;12.27;;
17524;SDS011;40431;52.198;9.902;2023-06-22T09:48:30;12.87;;;11.73;;
17524;SDS011;40431;52.198;9.902;2023-06-22T09:50:57;12.90;;;11.63;;
17524;SDS011;40431;52.198;9.902;2023-06-22T09:53:23;13.80;;;12.70;;
17524;SDS011;40431;52.198;9.902;2023-06-22T09:55:50;13.97;;;12.67;;
17524;SDS011;40431;52.198;9.902;2023-06-22T09:58:16;14.47;;;13.20;;
17524;SDS011;40431;52.198;9.902;2023-06-22T10:00:42;14.33;;;13.13;;
17524;SDS011;40431;52.198;9.902;2023-06-22T10:03:10;13.73;;;12.57;;
17524;SDS011;40431;52.198;9.902;2023-06-22T10:05:36;13.57;;;12.27;;
17524;SDS011;40431;52.198;9.902;2023-06-22T10:08:03;15.47;;;14.30;;
17524;SDS011;40431;52.198;9.902;2023-06-22T10:10:29;15.87;;;14.53;;
17524;SDS011;40431;52.198;9.902;2023-06-22T10:12:56;13.77;;;12.63;;
17524;SDS011;40431;52.198;9.902;2023-06-22T10:15:28;13.83;;;12.83;;
17524;SDS011;40431;52.198;9.902;2023-06-22T10:17:55;14.50;;;13.30;;
17524;SDS011;40431;52.198;9.902;2023-06-22T10:20:22;14.57;;;13.40;;
17524;SDS011;40431;52.198;9.902;2023-06-22T10:22:50;14.33;;;13.23;;
17524;SDS011;40431;52.198;9.902;2023-06-22T10:25:17;14.43;;;13.33;;
17524;SDS011;40431;52.198;9.902;2023-06-22T10:27:44;14.40;;;13.47;;
17524;SDS011;40431;52.198;9.902;2023-06-22T10:30:11;15.23;;;14.13;;
17524;SDS011;40431;52.198;9.902;2023-06-22T10:32:39;16.93;;;15.63;;
17524;SDS011;40431;52.198;9.902;2023-06-22T10:35:06;17.97;;;16.57;;
17524;SDS011;40431;52.198;9.902;2023-06-22T10:37:34;16.57;;;15.47;;
17524;SDS011;40431;52.198;9.902;2023-06-22T10:40:00;16.07;;;14.87;;
17524;SDS011;40431;52.198;9.902;2023-06-22T10:42:27;17.37;;;15.97;;
17524;SDS011;40431;52.198;9.902;2023-06-22T10:44:54;17.77;;;16.27;;
17524;SDS011;40431;52.198;9.902;2023-06-22T10:47:20;16.23;;;14.93;;
17524;SDS011;40431;52.198;9.902;2023-06-22T10:49:46;15.17;;;13.93;;
17524;SDS011;40431;52.198;9.902;2023-06-22T10:52:13;17.63;;;15.67;;
17524;SDS011;40431;52.198;9.902;2023-06-22T10:54:41;15.83;;;14.53;;
17524;SDS011;40431;52.198;9.902;2023-06-22T10:57:07;18.03;;;16.43;;
17524;SDS011;40431;52.198;9.902;2023-06-22T10:59:33;17.10;;;15.90;;
17524;SDS011;40431;52.198;9.902;2023-06-22T11:02:00;17.93;;;16.63;;
17524;SDS011;40431;52.198;9.902;2023-06-22T11:04:27;17.03;;;15.87;;
17524;SDS011;40431;52.198;9.902;2023-06-22T11:06:53;18.23;;;16.57;;
17524;SDS011;40431;52.198;9.902;2023-06-22T11:09:21;16.63;;;15.30;;
17524;SDS011;40431;52.198;9.902;2023-06-22T11:11:49;16.13;;;14.97;;
17524;SDS011;40431;52.198;9.902;2023-06-22T11:14:18;17.10;;;15.90;;
17524;SDS011;40431;52.198;9.902;2023-06-22T11:16:44;17.07;;;15.57;;
17524;SDS011;40431;52.198;9.902;2023-06-22T11:19:11;19.33;;;17.63;;
17524;SDS011;40431;52.198;9.902;2023-06-22T11:21:38;18.20;;;16.77;;
17524;SDS011;40431;52.198;9.902;2023-06-22T11:24:05;16.50;;;15.27;;
17524;SDS011;40431;52.198;9.902;2023-06-22T11:26:31;16.40;;;15.20;;
17524;SDS011;40431;52.198;9.902;2023-06-22T11:29:00;17.13;;;15.87;;
17524;SDS011;40431;52.198;9.902;2023-06-22T11:31:30;15.83;;;14.63;;
17524;SDS011;40431;52.198;9.902;2023-06-22T11:33:56;17.73;;;16.50;;
17524;SDS011;40431;52.198;9.902;2023-06-22T11:36:22;17.67;;;16.27;;
17524;SDS011;40431;52.198;9.902;2023-06-22T11:38:49;17.70;;;16.33;;
17524;SDS011;40431;52.198;9.902;2023-06-22T11:41:15;18.03;;;16.67;;
17524;SDS011;40431;52.198;9.902;2023-06-22T11:43:42;15.23;;;14.13;;
17524;SDS011;40431;52.198;9.902;2023-06-22T11:46:09;15.67;;;14.30;;
17524;SDS011;40431;52.198;9.902;2023-06-22T11:48:36;15.50;;;14.33;;
17524;SDS011;40431;52.198;9.902;2023-06-22T11:51:03;15.97;;;14.67;;
17524;SDS011;40431;52.198;9.902;2023-06-22T11:53:31;14.63;;;13.60;;
17524;SDS011;40431;52.198;9.902;2023-06-22T11:55:57;13.50;;;12.50;;
17524;SDS011;40431;52.198;9.902;2023-06-22T11:58:24;14.80;;;13.60;;
17524;SDS011;40431;52.198;9.902;2023-06-22T12:00:51;13.97;;;12.87;;
17524;SDS011;40431;52.198;9.902;2023-06-22T12:03:19;13.67;;;12.77;;
17524;SDS011;40431;52.198;9.902;2023-06-22T12:05:46;14.13;;;13.07;;
17524;SDS011;40431;52.198;9.902;2023-06-22T12:08:12;14.80;;;13.80;;
17524;SDS011;40431;52.198;9.902;2023-06-22T12:10:39;14.23;;;13.13;;
17524;SDS011;40431;52.198;9.902;2023-06-22T12:13:05;12.50;;;11.70;;
17524;SDS011;40431;52.198;9.902;2023-06-22T12:15:32;12.23;;;11.33;;
17524;SDS011;40431;52.198;9.902;2023-06-22T12:17:58;13.27;;;12.20;;
17524;SDS011;40431;52.198;9.902;2023-06-22T12:20:27;12.63;;;11.93;;
17524;SDS011;40431;52.198;9.902;2023-06-22T12:22:54;13.40;;;12.20;;
17524;SDS011;40431;52.198;9.902;2023-06-22T12:25:23;11.93;;;10.93;;
17524;SDS011;40431;52.198;9.902;2023-06-22T12:27:49;12.37;;;11.47;;
17524;SDS011;40431;52.198;9.902;2023-06-22T12:30:16;11.60;;;10.70;;
17524;SDS011;40431;52.198;9.902;2023-06-22T12:32:42;13.13;;;12.00;;
17524;SDS011;40431;52.198;9.902;2023-06-22T12:35:09;13.33;;;12.33;;
17524;SDS011;40431;52.198;9.902;2023-06-22T12:37:40;13.50;;;12.60;;
17524;SDS011;40431;52.198;9.902;2023-06-22T12:40:07;12.33;;;11.53;;
17524;SDS011;40431;52.198;9.902;2023-06-22T12:42:34;12.07;;;11.23;;
17524;SDS011;40431;52.198;9.902;2023-06-22T12:45:00;12.77;;;11.97;;
17524;SDS011;40431;52.198;9.902;2023-06-22T12:47:26;13.40;;;12.13;;
17524;SDS011;40431;52.198;9.902;2023-06-22T12:49:53;13.03;;;12.23;;
17524;SDS011;40431;52.198;9.902;2023-06-22T12:52:19;14.30;;;13.40;;
17524;SDS011;40431;52.198;9.902;2023-06-22T12:54:48;11.67;;;10.97;;
17524;SDS011;40431;52.198;9.902;2023-06-22T12:57:14;12.83;;;12.03;;
17524;SDS011;40431;52.198;9.902;2023-06-22T12:59:42;12.53;;;11.73;;
17524;SDS011;40431;52.198;9.902;2023-06-22T13:02:09;13.27;;;12.03;;
17524;SDS011;40431;52.198;9.902;2023-06-22T13:04:35;12.00;;;11.00;;
17524;SDS011;40431;52.198;9.902;2023-06-22T13:07:01;11.20;;;10.40;;
17524;SDS011;40431;52.198;9.902;2023-06-22T13:09:28;10.43;;;9.60;;
17524;SDS011;40431;52.198;9.902;2023-06-22T13:11:55;10.03;;;9.33;;
17524;SDS011;40431;52.198;9.902;2023-06-22T13:14:22;10.33;;;9.63;;
17524;SDS011;40431;52.198;9.902;2023-06-22T13:16:49;9.43;;;8.73;;
17524;SDS011;40431;52.198;9.902;2023-06-22T13:19:15;9.67;;;8.80;;
17524;SDS011;40431;52.198;9.902;2023-06-22T13:21:42;9.37;;;8.57;;
17524;SDS011;40431;52.198;9.902;2023-06-22T13:24:08;9.97;;;9.37;;
17524;SDS011;40431;52.198;9.902;2023-06-22T13:26:35;10.67;;;9.97;;
17524;SDS011;40431;52.198;9.902;2023-06-22T13:29:03;9.03;;;8.47;;
17524;SDS011;40431;52.198;9.902;2023-06-22T13:31:29;9.13;;;8.60;;
17524;SDS011;40431;52.198;9.902;2023-06-22T13:33:55;9.20;;;8.60;;
17524;SDS011;40431;52.198;9.902;2023-06-22T13:36:22;8.70;;;8.20;;
17524;SDS011;40431;52.198;9.902;2023-06-22T13:38:49;9.27;;;8.67;;
17524;SDS011;40431;52.198;9.902;2023-06-22T13:41:15;8.97;;;8.37;;
17524;SDS011;40431;52.198;9.902;2023-06-22T13:43:41;9.03;;;8.53;;
17524;SDS011;40431;52.198;9.902;2023-06-22T13:46:09;9.70;;;9.10;;
17524;SDS011;40431;52.198;9.902;2023-06-22T13:48:36;9.63;;;9.03;;
17524;SDS011;40431;52.198;9.902;2023-06-22T13:51:02;10.03;;;9.23;;
17524;SDS011;40431;52.198;9.902;2023-06-22T13:53:28;9.30;;;8.70;;
17524;SDS011;40431;52.198;9.902;2023-06-22T13:55:55;9.90;;;9.20;;
17524;SDS011;40431;52.198;9.902;2023-06-22T13:58:22;9.50;;;8.53;;
17524;SDS011;40431;52.198;9.902;2023-06-22T14:00:48;10.17;;;9.47;;
17524;SDS011;40431;52.198;9.902;2023-06-22T14:03:16;9.63;;;8.73;;
17524;SDS011;40431;52.198;9.902;2023-06-22T14:05:42;10.00;;;9.40;;
17524;SDS011;40431;52.198;9.902;2023-06-22T14:08:09;10.43;;;9.80;;
17524;SDS011;40431;52.198;9.902;2023-06-22T14:10:35;10.60;;;10.00;;
17524;SDS011;40431;52.198;9.902;2023-06-22T14:13:02;11.00;;;10.20;;
17524;SDS011;40431;52.198;9.902;2023-06-22T14:15:30;11.67;;;10.80;;
17524;SDS011;40431;52.198;9.902;2023-06-22T14:17:57;11.10;;;10.40;;
17524;SDS011;40431;52.198;9.902;2023-06-22T14:20:24;10.30;;;9.63;;
17524;SDS011;40431;52.198;9.902;2023-06-22T14:22:51;10.80;;;10.07;;
17524;SDS011;40431;52.198;9.902;2023-06-22T14:25:17;10.20;;;9.60;;